sensor_id;sensor_type;location;lat;lon;timestamp;P1;durP1;ratioP1;P2;durP2;ratioP2
15425;SDS011;7812;50.072;7.036;2022-07-19T00:00:24;3.93;;;1.93;;
15425;SDS011;7812;50.072;7.036;2022-07-19T00:02:51;2.57;;;1.83;;
15425;SDS011;7812;50.072;7.036;2022-07-19T00:05:18;3.50;;;1.70;;
15425;SDS011;7812;50.072;7.036;2022-07-19T00:07:44;2.43;;;1.50;;
15425;SDS011;7812;50.072;7.036;2022-07-19T00:10:14;2.47;;;1.60;;
15425;SDS011;7812;50.072;7.036;2022-07-19T00:12:41;2.23;;;1.70;;
15425;SDS011;7812;50.072;7.036;2022-07-19T00:15:09;2.03;;;1.70;;
15425;SDS011;7812;50.072;7.036;2022-07-19T00:17:40;2.10;;;1.60;;
15425;SDS011;7812;50.072;7.036;2022-07-19T00:20:09;2.30;;;1.50;;
15425;SDS011;7812;50.072;7.036;2022-07-19T00:22:36;3.80;;;1.70;;
15425;SDS011;7812;50.072;7.036;2022-07-19T00:25:03;3.47;;;1.80;;
15425;SDS011;7812;50.072;7.036;2022-07-19T00:27:30;2.00;;;1.63;;
15425;SDS011;7812;50.072;7.036;2022-07-19T00:29:56;3.70;;;1.73;;
15425;SDS011;7812;50.072;7.036;2022-07-19T00:32:22;3.93;;;1.77;;
15425;SDS011;7812;50.072;7.036;2022-07-19T00:34:48;2.27;;;1.80;;
15425;SDS011;7812;50.072;7.036;2022-07-19T00:37:14;3.53;;;1.80;;
15425;SDS011;7812;50.072;7.036;2022-07-19T00:39:40;2.23;;;1.50;;
15425;SDS011;7812;50.072;7.036;2022-07-19T00:42:06;3.53;;;1.57;;
15425;SDS011;7812;50.072;7.036;2022-07-19T00:44:32;2.23;;;1.73;;
15425;SDS011;7812;50.072;7.036;2022-07-19T00:46:58;1.80;;;1.60;;
15425;SDS011;7812;50.072;7.036;2022-07-19T00:49:24;3.23;;;1.80;;
15425;SDS011;7812;50.072;7.036;2022-07-19T00:51:50;2.57;;;1.80;;
15425;SDS011;7812;50.072;7.036;2022-07-19T00:54:18;3.07;;;1.90;;
15425;SDS011;7812;50.072;7.036;2022-07-19T00:56:46;2.37;;;1.70;;
15425;SDS011;7812;50.072;7.036;2022-07-19T00:59:14;2.00;;;1.53;;
15425;SDS011;7812;50.072;7.036;2022-07-19T01:01:40;3.33;;;1.73;;
15425;SDS011;7812;50.072;7.036;2022-07-19T01:04:07;1.60;;;1.50;;
15425;SDS011;7812;50.072;7.036;2022-07-19T01:06:33;3.03;;;1.90;;
15425;SDS011;7812;50.072;7.036;2022-07-19T01:08:59;3.70;;;1.80;;
15425;SDS011;7812;50.072;7.036;2022-07-19T01:11:25;1.57;;;1.47;;
15425;SDS011;7812;50.072;7.036;2022-07-19T01:13:51;2.43;;;1.70;;
15425;SDS011;7812;50.072;7.036;2022-07-19T01:16:17;2.70;;;1.80;;
15425;SDS011;7812;50.072;7.036;2022-07-19T01:18:43;2.90;;;1.70;;
15425;SDS011;7812;50.072;7.036;2022-07-19T01:21:13;2.30;;;1.70;;
15425;SDS011;7812;50.072;7.036;2022-07-19T01:23:46;1.73;;;1.63;;
15425;SDS011;7812;50.072;7.036;2022-07-19T01:26:12;2.00;;;1.70;;
15425;SDS011;7812;50.072;7.036;2022-07-19T01:28:38;3.77;;;2.10;;
15425;SDS011;7812;50.072;7.036;2022-07-19T01:31:05;3.10;;;1.90;;
15425;SDS011;7812;50.072;7.036;2022-07-19T01:33:31;2.77;;;1.90;;
15425;SDS011;7812;50.072;7.036;2022-07-19T01:35:57;3.40;;;1.90;;
15425;SDS011;7812;50.072;7.036;2022-07-19T01:38:23;2.30;;;1.80;;
15425;SDS011;7812;50.072;7.036;2022-07-19T01:40:49;2.20;;;1.67;;
15425;SDS011;7812;50.072;7.036;2022-07-19T01:43:15;4.20;;;2.00;;
15425;SDS011;7812;50.072;7.036;2022-07-19T01:45:40;2.40;;;1.80;;
15425;SDS011;7812;50.072;7.036;2022-07-19T01:48:06;2.57;;;2.17;;
15425;SDS011;7812;50.072;7.036;2022-07-19T01:50:32;2.53;;;1.63;;
15425;SDS011;7812;50.072;7.036;2022-07-19T01:52:58;4.33;;;2.00;;
15425;SDS011;7812;50.072;7.036;2022-07-19T01:55:24;3.17;;;2.10;;
15425;SDS011;7812;50.072;7.036;2022-07-19T01:57:50;2.10;;;1.83;;
15425;SDS011;7812;50.072;7.036;2022-07-19T02:00:16;2.20;;;1.80;;
15425;SDS011;7812;50.072;7.036;2022-07-19T02:02:42;2.70;;;1.80;;
15425;SDS011;7812;50.072;7.036;2022-07-19T02:05:08;2.57;;;1.70;;
15425;SDS011;7812;50.072;7.036;2022-07-19T02:07:34;3.47;;;1.83;;
15425;SDS011;7812;50.072;7.036;2022-07-19T02:10:00;2.87;;;1.77;;
15425;SDS011;7812;50.072;7.036;2022-07-19T02:12:26;2.13;;;1.80;;
15425;SDS011;7812;50.072;7.036;2022-07-19T02:14:52;2.27;;;2.07;;
15425;SDS011;7812;50.072;7.036;2022-07-19T02:17:18;3.23;;;2.50;;
15425;SDS011;7812;50.072;7.036;2022-07-19T02:19:44;3.07;;;2.00;;
15425;SDS011;7812;50.072;7.036;2022-07-19T02:22:10;1.90;;;1.50;;
15425;SDS011;7812;50.072;7.036;2022-07-19T02:24:36;2.87;;;2.00;;
15425;SDS011;7812;50.072;7.036;2022-07-19T02:27:02;4.77;;;1.97;;
15425;SDS011;7812;50.072;7.036;2022-07-19T02:29:28;2.07;;;1.87;;
15425;SDS011;7812;50.072;7.036;2022-07-19T02:31:54;2.40;;;1.80;;
15425;SDS011;7812;50.072;7.036;2022-07-19T02:34:21;4.40;;;2.20;;
15425;SDS011;7812;50.072;7.036;2022-07-19T02:36:46;2.50;;;2.03;;
15425;SDS011;7812;50.072;7.036;2022-07-19T02:39:12;3.83;;;2.30;;
15425;SDS011;7812;50.072;7.036;2022-07-19T02:41:38;3.53;;;2.13;;
15425;SDS011;7812;50.072;7.036;2022-07-19T02:44:04;2.20;;;2.00;;
15425;SDS011;7812;50.072;7.036;2022-07-19T02:46:30;2.97;;;1.90;;
15425;SDS011;7812;50.072;7.036;2022-07-19T02:48:57;4.80;;;2.40;;
15425;SDS011;7812;50.072;7.036;2022-07-19T02:51:23;2.67;;;1.90;;
15425;SDS011;7812;50.072;7.036;2022-07-19T02:53:51;3.90;;;2.03;;
15425;SDS011;7812;50.072;7.036;2022-07-19T02:56:17;1.93;;;1.77;;
15425;SDS011;7812;50.072;7.036;2022-07-19T02:58:43;3.50;;;1.80;;
15425;SDS011;7812;50.072;7.036;2022-07-19T03:01:09;4.97;;;1.90;;
15425;SDS011;7812;50.072;7.036;2022-07-19T03:03:35;2.20;;;2.00;;
15425;SDS011;7812;50.072;7.036;2022-07-19T03:06:14;4.10;;;2.00;;
15425;SDS011;7812;50.072;7.036;2022-07-19T03:08:41;2.97;;;1.80;;
15425;SDS011;7812;50.072;7.036;2022-07-19T03:11:07;2.87;;;1.90;;
15425;SDS011;7812;50.072;7.036;2022-07-19T03:13:33;2.73;;;1.90;;
15425;SDS011;7812;50.072;7.036;2022-07-19T03:15:59;2.30;;;1.80;;
15425;SDS011;7812;50.072;7.036;2022-07-19T03:18:25;2.90;;;1.87;;
15425;SDS011;7812;50.072;7.036;2022-07-19T03:20:50;3.00;;;1.93;;
15425;SDS011;7812;50.072;7.036;2022-07-19T03:23:16;2.13;;;1.73;;
15425;SDS011;7812;50.072;7.036;2022-07-19T03:25:42;3.03;;;2.03;;
15425;SDS011;7812;50.072;7.036;2022-07-19T03:28:08;3.47;;;2.07;;
15425;SDS011;7812;50.072;7.036;2022-07-19T03:30:34;2.07;;;1.80;;
15425;SDS011;7812;50.072;7.036;2022-07-19T03:33:00;2.30;;;2.10;;
15425;SDS011;7812;50.072;7.036;2022-07-19T03:35:26;2.10;;;1.90;;
15425;SDS011;7812;50.072;7.036;2022-07-19T03:37:52;4.10;;;2.13;;
15425;SDS011;7812;50.072;7.036;2022-07-19T03:40:19;2.63;;;2.10;;
15425;SDS011;7812;50.072;7.036;2022-07-19T03:42:44;5.37;;;2.20;;
15425;SDS011;7812;50.072;7.036;2022-07-19T03:45:10;3.23;;;2.17;;
15425;SDS011;7812;50.072;7.036;2022-07-19T03:47:36;2.33;;;1.80;;
15425;SDS011;7812;50.072;7.036;2022-07-19T03:50:02;3.13;;;2.00;;
15425;SDS011;7812;50.072;7.036;2022-07-19T03:52:29;2.80;;;2.10;;
15425;SDS011;7812;50.072;7.036;2022-07-19T03:54:55;2.37;;;1.80;;
15425;SDS011;7812;50.072;7.036;2022-07-19T03:57:21;3.67;;;2.00;;
15425;SDS011;7812;50.072;7.036;2022-07-19T03:59:47;2.83;;;2.30;;
15425;SDS011;7812;50.072;7.036;2022-07-19T04:02:13;3.60;;;2.20;;
15425;SDS011;7812;50.072;7.036;2022-07-19T04:04:39;2.77;;;2.43;;
15425;SDS011;7812;50.072;7.036;2022-07-19T04:07:05;2.53;;;2.20;;
15425;SDS011;7812;50.072;7.036;2022-07-19T04:09:31;2.93;;;2.30;;
15425;SDS011;7812;50.072;7.036;2022-07-19T04:11:57;5.00;;;2.60;;
15425;SDS011;7812;50.072;7.036;2022-07-19T04:14:22;2.83;;;2.10;;
15425;SDS011;7812;50.072;7.036;2022-07-19T04:16:49;4.97;;;2.20;;
15425;SDS011;7812;50.072;7.036;2022-07-19T04:19:15;2.40;;;1.90;;
15425;SDS011;7812;50.072;7.036;2022-07-19T04:21:41;2.47;;;2.20;;
15425;SDS011;7812;50.072;7.036;2022-07-19T04:24:06;9.70;;;2.30;;
15425;SDS011;7812;50.072;7.036;2022-07-19T04:26:32;2.10;;;1.90;;
15425;SDS011;7812;50.072;7.036;2022-07-19T04:28:58;2.47;;;2.27;;
15425;SDS011;7812;50.072;7.036;2022-07-19T04:31:24;2.20;;;1.97;;
15425;SDS011;7812;50.072;7.036;2022-07-19T04:33:50;2.00;;;1.80;;
15425;SDS011;7812;50.072;7.036;2022-07-19T04:36:16;3.00;;;2.30;;
15425;SDS011;7812;50.072;7.036;2022-07-19T04:38:42;3.03;;;1.97;;
15425;SDS011;7812;50.072;7.036;2022-07-19T04:41:08;3.60;;;2.33;;
15425;SDS011;7812;50.072;7.036;2022-07-19T04:43:34;2.17;;;1.97;;
15425;SDS011;7812;50.072;7.036;2022-07-19T04:46:00;2.70;;;2.20;;
15425;SDS011;7812;50.072;7.036;2022-07-19T04:48:27;3.20;;;2.40;;
15425;SDS011;7812;50.072;7.036;2022-07-19T04:50:53;2.63;;;1.97;;
15425;SDS011;7812;50.072;7.036;2022-07-19T04:53:19;2.20;;;2.00;;
15425;SDS011;7812;50.072;7.036;2022-07-19T04:55:45;3.00;;;2.20;;
15425;SDS011;7812;50.072;7.036;2022-07-19T04:58:11;3.10;;;2.23;;
15425;SDS011;7812;50.072;7.036;2022-07-19T05:00:37;3.20;;;2.30;;
15425;SDS011;7812;50.072;7.036;2022-07-19T05:03:03;3.00;;;2.30;;
15425;SDS011;7812;50.072;7.036;2022-07-19T05:05:30;2.97;;;2.53;;
15425;SDS011;7812;50.072;7.036;2022-07-19T05:07:56;3.10;;;2.30;;
15425;SDS011;7812;50.072;7.036;2022-07-19T05:10:22;2.90;;;2.17;;
15425;SDS011;7812;50.072;7.036;2022-07-19T05:12:49;3.97;;;2.50;;
15425;SDS011;7812;50.072;7.036;2022-07-19T05:15:14;3.23;;;2.20;;
15425;SDS011;7812;50.072;7.036;2022-07-19T05:17:40;3.20;;;2.20;;
15425;SDS011;7812;50.072;7.036;2022-07-19T05:20:07;3.67;;;2.10;;
15425;SDS011;7812;50.072;7.036;2022-07-19T05:22:33;2.87;;;2.23;;
15425;SDS011;7812;50.072;7.036;2022-07-19T05:25:00;3.33;;;2.30;;
15425;SDS011;7812;50.072;7.036;2022-07-19T05:27:26;2.60;;;2.40;;
15425;SDS011;7812;50.072;7.036;2022-07-19T05:29:51;2.67;;;2.23;;
15425;SDS011;7812;50.072;7.036;2022-07-19T05:32:18;3.23;;;2.40;;
15425;SDS011;7812;50.072;7.036;2022-07-19T05:34:44;3.37;;;2.20;;
15425;SDS011;7812;50.072;7.036;2022-07-19T05:37:10;2.13;;;1.93;;
15425;SDS011;7812;50.072;7.036;2022-07-19T05:39:36;2.40;;;2.10;;
15425;SDS011;7812;50.072;7.036;2022-07-19T05:42:02;2.47;;;2.23;;
15425;SDS011;7812;50.072;7.036;2022-07-19T05:44:28;2.70;;;2.10;;
15425;SDS011;7812;50.072;7.036;2022-07-19T05:46:54;3.73;;;2.10;;
15425;SDS011;7812;50.072;7.036;2022-07-19T05:49:19;2.50;;;2.17;;
15425;SDS011;7812;50.072;7.036;2022-07-19T05:51:45;4.03;;;2.00;;
15425;SDS011;7812;50.072;7.036;2022-07-19T05:54:11;2.57;;;2.20;;
15425;SDS011;7812;50.072;7.036;2022-07-19T05:56:37;2.27;;;2.07;;
15425;SDS011;7812;50.072;7.036;2022-07-19T05:59:03;3.60;;;2.13;;
15425;SDS011;7812;50.072;7.036;2022-07-19T06:01:29;2.23;;;1.80;;
15425;SDS011;7812;50.072;7.036;2022-07-19T06:03:57;2.87;;;2.10;;
15425;SDS011;7812;50.072;7.036;2022-07-19T06:06:25;3.13;;;1.93;;
15425;SDS011;7812;50.072;7.036;2022-07-19T06:08:52;2.50;;;1.83;;
15425;SDS011;7812;50.072;7.036;2022-07-19T06:11:18;3.10;;;2.00;;
15425;SDS011;7812;50.072;7.036;2022-07-19T06:13:46;3.03;;;1.93;;
15425;SDS011;7812;50.072;7.036;2022-07-19T06:16:13;4.10;;;1.90;;
15425;SDS011;7812;50.072;7.036;2022-07-19T06:18:38;4.00;;;2.20;;
15425;SDS011;7812;50.072;7.036;2022-07-19T06:21:06;3.37;;;1.90;;
15425;SDS011;7812;50.072;7.036;2022-07-19T06:23:33;3.57;;;2.00;;
15425;SDS011;7812;50.072;7.036;2022-07-19T06:26:00;2.90;;;2.00;;
15425;SDS011;7812;50.072;7.036;2022-07-19T06:28:26;4.57;;;2.10;;
15425;SDS011;7812;50.072;7.036;2022-07-19T06:30:52;2.97;;;1.77;;
15425;SDS011;7812;50.072;7.036;2022-07-19T06:33:18;3.17;;;1.80;;
15425;SDS011;7812;50.072;7.036;2022-07-19T06:35:45;3.37;;;1.90;;
15425;SDS011;7812;50.072;7.036;2022-07-19T06:38:11;3.57;;;2.40;;
15425;SDS011;7812;50.072;7.036;2022-07-19T06:40:37;3.33;;;1.90;;
15425;SDS011;7812;50.072;7.036;2022-07-19T06:43:03;3.23;;;1.87;;
15425;SDS011;7812;50.072;7.036;2022-07-19T06:45:29;3.03;;;1.90;;
15425;SDS011;7812;50.072;7.036;2022-07-19T06:47:55;3.43;;;1.80;;
15425;SDS011;7812;50.072;7.036;2022-07-19T06:50:21;4.07;;;2.00;;
15425;SDS011;7812;50.072;7.036;2022-07-19T06:52:47;3.77;;;2.27;;
15425;SDS011;7812;50.072;7.036;2022-07-19T06:55:13;5.40;;;1.83;;
15425;SDS011;7812;50.072;7.036;2022-07-19T06:57:39;3.90;;;1.90;;
15425;SDS011;7812;50.072;7.036;2022-07-19T07:00:06;3.30;;;1.77;;
15425;SDS011;7812;50.072;7.036;2022-07-19T07:02:37;2.20;;;2.00;;
15425;SDS011;7812;50.072;7.036;2022-07-19T07:05:04;5.50;;;1.93;;
15425;SDS011;7812;50.072;7.036;2022-07-19T07:07:31;2.33;;;1.80;;
15425;SDS011;7812;50.072;7.036;2022-07-19T07:09:57;2.47;;;1.60;;
15425;SDS011;7812;50.072;7.036;2022-07-19T07:12:25;2.27;;;2.00;;
15425;SDS011;7812;50.072;7.036;2022-07-19T07:14:51;2.53;;;1.70;;
15425;SDS011;7812;50.072;7.036;2022-07-19T07:17:16;3.57;;;1.70;;
15425;SDS011;7812;50.072;7.036;2022-07-19T07:19:42;6.53;;;1.90;;
15425;SDS011;7812;50.072;7.036;2022-07-19T07:22:08;3.73;;;1.97;;
15425;SDS011;7812;50.072;7.036;2022-07-19T07:24:34;3.30;;;2.07;;
15425;SDS011;7812;50.072;7.036;2022-07-19T07:26:59;3.37;;;1.90;;
15425;SDS011;7812;50.072;7.036;2022-07-19T07:29:25;1.90;;;1.80;;
15425;SDS011;7812;50.072;7.036;2022-07-19T07:31:51;2.73;;;1.90;;
15425;SDS011;7812;50.072;7.036;2022-07-19T07:34:17;2.23;;;1.77;;
15425;SDS011;7812;50.072;7.036;2022-07-19T07:36:42;3.07;;;1.93;;
15425;SDS011;7812;50.072;7.036;2022-07-19T07:39:09;2.83;;;1.97;;
15425;SDS011;7812;50.072;7.036;2022-07-19T07:41:35;4.43;;;2.00;;
15425;SDS011;7812;50.072;7.036;2022-07-19T07:44:01;4.47;;;1.93;;
15425;SDS011;7812;50.072;7.036;2022-07-19T07:46:27;4.53;;;1.87;;
15425;SDS011;7812;50.072;7.036;2022-07-19T07:48:53;3.53;;;1.57;;
15425;SDS011;7812;50.072;7.036;2022-07-19T07:51:18;2.20;;;1.83;;
15425;SDS011;7812;50.072;7.036;2022-07-19T07:53:44;2.40;;;1.90;;
15425;SDS011;7812;50.072;7.036;2022-07-19T07:56:10;4.67;;;2.17;;
15425;SDS011;7812;50.072;7.036;2022-07-19T07:58:35;3.13;;;2.20;;
15425;SDS011;7812;50.072;7.036;2022-07-19T08:01:02;2.73;;;2.30;;
15425;SDS011;7812;50.072;7.036;2022-07-19T08:03:28;2.70;;;2.33;;
15425;SDS011;7812;50.072;7.036;2022-07-19T08:05:53;3.60;;;2.47;;
15425;SDS011;7812;50.072;7.036;2022-07-19T08:08:19;2.77;;;2.13;;
15425;SDS011;7812;50.072;7.036;2022-07-19T08:10:45;4.77;;;2.50;;
15425;SDS011;7812;50.072;7.036;2022-07-19T08:13:11;3.67;;;2.20;;
15425;SDS011;7812;50.072;7.036;2022-07-19T08:15:37;2.20;;;2.10;;
15425;SDS011;7812;50.072;7.036;2022-07-19T08:18:03;4.90;;;2.57;;
15425;SDS011;7812;50.072;7.036;2022-07-19T08:20:30;2.80;;;2.50;;
15425;SDS011;7812;50.072;7.036;2022-07-19T08:22:56;2.87;;;2.37;;
15425;SDS011;7812;50.072;7.036;2022-07-19T08:25:21;2.63;;;2.30;;
15425;SDS011;7812;50.072;7.036;2022-07-19T08:27:47;4.17;;;2.77;;
15425;SDS011;7812;50.072;7.036;2022-07-19T08:30:13;3.73;;;2.40;;
15425;SDS011;7812;50.072;7.036;2022-07-19T08:32:39;3.87;;;2.30;;
15425;SDS011;7812;50.072;7.036;2022-07-19T08:35:06;3.73;;;2.30;;
15425;SDS011;7812;50.072;7.036;2022-07-19T08:37:33;4.73;;;2.60;;
15425;SDS011;7812;50.072;7.036;2022-07-19T08:39:59;3.40;;;2.40;;
15425;SDS011;7812;50.072;7.036;2022-07-19T08:42:25;4.40;;;2.20;;
15425;SDS011;7812;50.072;7.036;2022-07-19T08:44:51;3.07;;;2.10;;
15425;SDS011;7812;50.072;7.036;2022-07-19T08:47:19;2.60;;;2.00;;
15425;SDS011;7812;50.072;7.036;2022-07-19T08:49:47;4.00;;;2.10;;
15425;SDS011;7812;50.072;7.036;2022-07-19T08:52:14;4.97;;;2.20;;
15425;SDS011;7812;50.072;7.036;2022-07-19T08:54:41;2.80;;;2.03;;
15425;SDS011;7812;50.072;7.036;2022-07-19T08:57:07;3.57;;;2.30;;
15425;SDS011;7812;50.072;7.036;2022-07-19T08:59:51;4.93;;;2.20;;
15425;SDS011;7812;50.072;7.036;2022-07-19T09:02:17;5.17;;;2.43;;
15425;SDS011;7812;50.072;7.036;2022-07-19T09:04:43;3.20;;;2.33;;
15425;SDS011;7812;50.072;7.036;2022-07-19T09:07:23;5.87;;;2.43;;
15425;SDS011;7812;50.072;7.036;2022-07-19T09:09:51;3.30;;;2.10;;
15425;SDS011;7812;50.072;7.036;2022-07-19T09:12:17;3.27;;;2.30;;
15425;SDS011;7812;50.072;7.036;2022-07-19T09:14:43;2.27;;;1.97;;
15425;SDS011;7812;50.072;7.036;2022-07-19T09:17:18;2.97;;;2.13;;
15425;SDS011;7812;50.072;7.036;2022-07-19T09:19:46;5.60;;;2.27;;
15425;SDS011;7812;50.072;7.036;2022-07-19T09:22:15;2.67;;;2.07;;
15425;SDS011;7812;50.072;7.036;2022-07-19T09:24:44;3.00;;;2.27;;
15425;SDS011;7812;50.072;7.036;2022-07-19T09:27:15;2.83;;;2.10;;
15425;SDS011;7812;50.072;7.036;2022-07-19T09:29:49;2.93;;;1.83;;
15425;SDS011;7812;50.072;7.036;2022-07-19T09:32:19;6.70;;;2.47;;
15425;SDS011;7812;50.072;7.036;2022-07-19T09:34:59;3.97;;;2.43;;
15425;SDS011;7812;50.072;7.036;2022-07-19T09:37:39;2.13;;;1.83;;
15425;SDS011;7812;50.072;7.036;2022-07-19T09:40:07;3.87;;;2.17;;
15425;SDS011;7812;50.072;7.036;2022-07-19T09:45:05;2.10;;;1.90;;
15425;SDS011;7812;50.072;7.036;2022-07-19T09:47:40;3.37;;;2.33;;
15425;SDS011;7812;50.072;7.036;2022-07-19T09:50:09;2.50;;;2.30;;
15425;SDS011;7812;50.072;7.036;2022-07-19T09:52:42;3.40;;;2.00;;
15425;SDS011;7812;50.072;7.036;2022-07-19T09:55:09;2.10;;;1.90;;
15425;SDS011;7812;50.072;7.036;2022-07-19T09:57:38;2.70;;;2.20;;
15425;SDS011;7812;50.072;7.036;2022-07-19T10:00:06;4.30;;;2.00;;
15425;SDS011;7812;50.072;7.036;2022-07-19T10:02:34;3.90;;;2.00;;
15425;SDS011;7812;50.072;7.036;2022-07-19T10:05:02;5.43;;;2.43;;
15425;SDS011;7812;50.072;7.036;2022-07-19T10:07:28;1.93;;;1.80;;
15425;SDS011;7812;50.072;7.036;2022-07-19T10:09:54;3.57;;;1.70;;
15425;SDS011;7812;50.072;7.036;2022-07-19T10:12:21;2.63;;;1.70;;
15425;SDS011;7812;50.072;7.036;2022-07-19T10:14:47;1.90;;;1.80;;
15425;SDS011;7812;50.072;7.036;2022-07-19T10:17:23;2.70;;;1.97;;
15425;SDS011;7812;50.072;7.036;2022-07-19T10:19:57;4.60;;;1.83;;
15425;SDS011;7812;50.072;7.036;2022-07-19T10:22:24;2.53;;;2.10;;
15425;SDS011;7812;50.072;7.036;2022-07-19T10:24:55;3.83;;;2.07;;
15425;SDS011;7812;50.072;7.036;2022-07-19T10:27:38;3.10;;;1.80;;
15425;SDS011;7812;50.072;7.036;2022-07-19T10:32:41;2.27;;;1.60;;
15425;SDS011;7812;50.072;7.036;2022-07-19T10:41:05;3.00;;;1.90;;
15425;SDS011;7812;50.072;7.036;2022-07-19T10:51:10;3.87;;;2.17;;
15425;SDS011;7812;50.072;7.036;2022-07-19T10:53:55;2.90;;;2.50;;
15425;SDS011;7812;50.072;7.036;2022-07-19T10:56:22;2.87;;;2.40;;
15425;SDS011;7812;50.072;7.036;2022-07-19T10:58:58;2.73;;;2.27;;
15425;SDS011;7812;50.072;7.036;2022-07-19T11:01:27;2.83;;;2.63;;
15425;SDS011;7812;50.072;7.036;2022-07-19T11:04:21;3.70;;;2.70;;
15425;SDS011;7812;50.072;7.036;2022-07-19T11:09:41;5.80;;;2.50;;
15425;SDS011;7812;50.072;7.036;2022-07-19T11:12:21;4.03;;;2.50;;
15425;SDS011;7812;50.072;7.036;2022-07-19T11:14:47;2.80;;;2.30;;
15425;SDS011;7812;50.072;7.036;2022-07-19T11:17:13;3.47;;;2.20;;
15425;SDS011;7812;50.072;7.036;2022-07-19T11:19:55;2.77;;;2.53;;
15425;SDS011;7812;50.072;7.036;2022-07-19T11:22:26;3.33;;;2.80;;
15425;SDS011;7812;50.072;7.036;2022-07-19T11:24:57;3.20;;;2.43;;
15425;SDS011;7812;50.072;7.036;2022-07-19T11:27:23;2.90;;;2.70;;
15425;SDS011;7812;50.072;7.036;2022-07-19T11:29:53;4.90;;;2.73;;
15425;SDS011;7812;50.072;7.036;2022-07-19T11:32:24;4.83;;;2.60;;
15425;SDS011;7812;50.072;7.036;2022-07-19T11:34:56;3.50;;;3.20;;
15425;SDS011;7812;50.072;7.036;2022-07-19T11:37:24;4.33;;;3.10;;
15425;SDS011;7812;50.072;7.036;2022-07-19T11:39:52;4.00;;;3.10;;
15425;SDS011;7812;50.072;7.036;2022-07-19T11:45:15;5.40;;;3.57;;
15425;SDS011;7812;50.072;7.036;2022-07-19T11:47:45;3.57;;;3.10;;
15425;SDS011;7812;50.072;7.036;2022-07-19T11:50:13;4.93;;;2.70;;
15425;SDS011;7812;50.072;7.036;2022-07-19T11:52:41;3.73;;;3.07;;
15425;SDS011;7812;50.072;7.036;2022-07-19T11:55:07;4.63;;;3.10;;
15425;SDS011;7812;50.072;7.036;2022-07-19T11:57:33;5.87;;;3.00;;
15425;SDS011;7812;50.072;7.036;2022-07-19T11:59:59;5.10;;;3.10;;
15425;SDS011;7812;50.072;7.036;2022-07-19T12:02:24;6.00;;;3.20;;
15425;SDS011;7812;50.072;7.036;2022-07-19T12:04:50;5.80;;;3.30;;
15425;SDS011;7812;50.072;7.036;2022-07-19T12:07:16;3.60;;;3.30;;
15425;SDS011;7812;50.072;7.036;2022-07-19T12:09:43;3.53;;;3.10;;
15425;SDS011;7812;50.072;7.036;2022-07-19T12:12:13;8.97;;;3.53;;
15425;SDS011;7812;50.072;7.036;2022-07-19T12:14:40;7.30;;;3.40;;
15425;SDS011;7812;50.072;7.036;2022-07-19T12:17:19;5.13;;;3.53;;
15425;SDS011;7812;50.072;7.036;2022-07-19T12:22:36;4.00;;;3.33;;
15425;SDS011;7812;50.072;7.036;2022-07-19T12:25:05;4.10;;;3.20;;
15425;SDS011;7812;50.072;7.036;2022-07-19T12:27:32;3.47;;;3.13;;
15425;SDS011;7812;50.072;7.036;2022-07-19T12:29:58;6.13;;;3.60;;
15425;SDS011;7812;50.072;7.036;2022-07-19T12:32:34;4.50;;;3.70;;
15425;SDS011;7812;50.072;7.036;2022-07-19T12:35:05;4.97;;;3.57;;
15425;SDS011;7812;50.072;7.036;2022-07-19T12:37:42;3.87;;;3.50;;
15425;SDS011;7812;50.072;7.036;2022-07-19T12:45:12;4.53;;;2.80;;
15425;SDS011;7812;50.072;7.036;2022-07-19T12:47:40;5.07;;;3.17;;
15425;SDS011;7812;50.072;7.036;2022-07-19T12:50:07;3.17;;;2.63;;
15425;SDS011;7812;50.072;7.036;2022-07-19T12:52:33;4.47;;;2.73;;
15425;SDS011;7812;50.072;7.036;2022-07-19T12:54:59;3.10;;;2.60;;
15425;SDS011;7812;50.072;7.036;2022-07-19T12:57:25;3.50;;;2.70;;
15425;SDS011;7812;50.072;7.036;2022-07-19T12:59:53;6.47;;;2.70;;
15425;SDS011;7812;50.072;7.036;2022-07-19T13:02:19;3.77;;;3.00;;
15425;SDS011;7812;50.072;7.036;2022-07-19T13:04:45;5.50;;;2.67;;
15425;SDS011;7812;50.072;7.036;2022-07-19T13:07:11;4.23;;;3.10;;
15425;SDS011;7812;50.072;7.036;2022-07-19T13:09:38;5.00;;;2.87;;
15425;SDS011;7812;50.072;7.036;2022-07-19T13:12:05;5.70;;;2.90;;
15425;SDS011;7812;50.072;7.036;2022-07-19T13:14:33;4.50;;;2.80;;
15425;SDS011;7812;50.072;7.036;2022-07-19T13:16:59;5.77;;;2.80;;
15425;SDS011;7812;50.072;7.036;2022-07-19T13:19:25;3.50;;;2.70;;
15425;SDS011;7812;50.072;7.036;2022-07-19T13:21:51;3.80;;;2.50;;
15425;SDS011;7812;50.072;7.036;2022-07-19T13:24:18;6.23;;;2.40;;
15425;SDS011;7812;50.072;7.036;2022-07-19T13:26:45;4.33;;;2.37;;
15425;SDS011;7812;50.072;7.036;2022-07-19T13:29:10;3.83;;;2.50;;
15425;SDS011;7812;50.072;7.036;2022-07-19T13:31:36;7.63;;;2.40;;
15425;SDS011;7812;50.072;7.036;2022-07-19T13:34:03;4.93;;;2.63;;
15425;SDS011;7812;50.072;7.036;2022-07-19T13:36:28;2.77;;;2.17;;
15425;SDS011;7812;50.072;7.036;2022-07-19T13:38:54;5.90;;;2.97;;
15425;SDS011;7812;50.072;7.036;2022-07-19T13:41:20;2.83;;;2.37;;
15425;SDS011;7812;50.072;7.036;2022-07-19T13:43:46;4.67;;;2.60;;
15425;SDS011;7812;50.072;7.036;2022-07-19T13:46:14;4.27;;;2.33;;
15425;SDS011;7812;50.072;7.036;2022-07-19T13:48:40;2.17;;;1.97;;
15425;SDS011;7812;50.072;7.036;2022-07-19T13:51:06;3.90;;;2.30;;
15425;SDS011;7812;50.072;7.036;2022-07-19T13:53:33;3.37;;;2.10;;
15425;SDS011;7812;50.072;7.036;2022-07-19T13:56:00;3.80;;;1.80;;
15425;SDS011;7812;50.072;7.036;2022-07-19T13:58:26;4.13;;;1.90;;
15425;SDS011;7812;50.072;7.036;2022-07-19T14:00:52;3.53;;;1.80;;
15425;SDS011;7812;50.072;7.036;2022-07-19T14:03:18;3.47;;;1.90;;
15425;SDS011;7812;50.072;7.036;2022-07-19T14:05:45;3.03;;;1.90;;
15425;SDS011;7812;50.072;7.036;2022-07-19T14:08:14;4.77;;;1.70;;
15425;SDS011;7812;50.072;7.036;2022-07-19T14:10:40;1.87;;;1.77;;
15425;SDS011;7812;50.072;7.036;2022-07-19T14:13:06;2.47;;;1.87;;
15425;SDS011;7812;50.072;7.036;2022-07-19T14:15:32;3.73;;;1.73;;
15425;SDS011;7812;50.072;7.036;2022-07-19T14:17:58;2.30;;;1.90;;
15425;SDS011;7812;50.072;7.036;2022-07-19T14:20:24;2.80;;;1.80;;
15425;SDS011;7812;50.072;7.036;2022-07-19T14:22:51;3.97;;;1.93;;
15425;SDS011;7812;50.072;7.036;2022-07-19T14:25:17;4.77;;;2.10;;
15425;SDS011;7812;50.072;7.036;2022-07-19T14:27:43;3.57;;;1.57;;
15425;SDS011;7812;50.072;7.036;2022-07-19T14:30:09;3.60;;;1.60;;
15425;SDS011;7812;50.072;7.036;2022-07-19T14:32:35;3.37;;;1.60;;
15425;SDS011;7812;50.072;7.036;2022-07-19T14:35:01;4.80;;;1.93;;
15425;SDS011;7812;50.072;7.036;2022-07-19T14:37:26;2.10;;;1.50;;
15425;SDS011;7812;50.072;7.036;2022-07-19T14:39:52;2.83;;;2.00;;
15425;SDS011;7812;50.072;7.036;2022-07-19T14:42:18;3.53;;;1.90;;
15425;SDS011;7812;50.072;7.036;2022-07-19T14:44:44;3.17;;;1.90;;
15425;SDS011;7812;50.072;7.036;2022-07-19T14:47:09;3.10;;;1.60;;
15425;SDS011;7812;50.072;7.036;2022-07-19T14:49:35;2.30;;;1.80;;
15425;SDS011;7812;50.072;7.036;2022-07-19T14:52:02;4.77;;;1.67;;
15425;SDS011;7812;50.072;7.036;2022-07-19T14:54:28;2.70;;;1.87;;
15425;SDS011;7812;50.072;7.036;2022-07-19T14:56:55;3.60;;;1.60;;
15425;SDS011;7812;50.072;7.036;2022-07-19T14:59:21;2.33;;;1.97;;
15425;SDS011;7812;50.072;7.036;2022-07-19T15:01:48;3.27;;;2.10;;
15425;SDS011;7812;50.072;7.036;2022-07-19T15:04:14;3.57;;;1.80;;
15425;SDS011;7812;50.072;7.036;2022-07-19T15:06:40;3.40;;;1.80;;
15425;SDS011;7812;50.072;7.036;2022-07-19T15:09:06;4.10;;;1.80;;
15425;SDS011;7812;50.072;7.036;2022-07-19T15:11:32;4.90;;;1.80;;
15425;SDS011;7812;50.072;7.036;2022-07-19T15:13:58;2.33;;;1.90;;
15425;SDS011;7812;50.072;7.036;2022-07-19T15:16:24;4.80;;;2.00;;
15425;SDS011;7812;50.072;7.036;2022-07-19T15:18:50;2.20;;;2.00;;
15425;SDS011;7812;50.072;7.036;2022-07-19T15:21:16;3.60;;;2.10;;
15425;SDS011;7812;50.072;7.036;2022-07-19T15:23:42;7.60;;;2.90;;
15425;SDS011;7812;50.072;7.036;2022-07-19T15:26:08;6.17;;;1.93;;
15425;SDS011;7812;50.072;7.036;2022-07-19T15:28:34;5.63;;;2.00;;
15425;SDS011;7812;50.072;7.036;2022-07-19T15:31:02;3.37;;;2.00;;